Time;durP1;ratioP1;P1;durP2;ratioP2;P2;SDS_P1;SDS_P2;PMS_P1;PMS_P2;Temp;Humidity;BMP_temperature;BMP_pressure;BME280_temperature;BME280_humidity;BME280_pressure;Samples;Min_cycle;Max_cycle;Signal;HPM_P1;HPM_P2
2021/12/23 00:01:46;;;;;;;6.63;5.90;;;15.00;25.40;;;;;;5114858;28;20226;-62
2021/12/23 00:04:14;;;;;;;6.50;5.90;;;15.00;25.40;;;;;;5115369;28;20203;-62
2021/12/23 00:06:44;;;;;;;6.20;5.60;;;15.00;25.50;;;;;;5115427;28;20211;-62
2021/12/23 00:09:12;;;;;;;6.00;5.47;;;15.00;25.40;;;;;;5115579;28;20203;-61
2021/12/23 00:11:39;;;;;;;6.22;5.60;;;15.00;25.40;;;;;;5115284;28;20209;-62
2021/12/23 00:14:09;;;;;;;6.40;5.80;;;15.00;25.40;;;;;;5098736;28;20218;-62
2021/12/23 00:16:46;;;;;;;6.10;5.50;;;15.00;25.50;;;;;;5115397;28;20310;-62
2021/12/23 00:19:23;;;;;;;5.70;5.20;;;15.00;25.50;;;;;;5114746;28;20305;-62
2021/12/23 00:24:37;;;;;;;5.70;5.20;;;14.90;25.40;;;;;;5115610;28;20299;-62
2021/12/23 00:27:06;;;;;;;5.95;5.45;;;14.90;25.40;;;;;;5115739;28;20237;-62
2021/12/23 00:29:33;;;;;;;5.53;5.03;;;14.90;25.40;;;;;;5115676;28;20207;-62
2021/12/23 00:32:04;;;;;;;5.65;5.15;;;14.90;25.40;;;;;;5095947;28;20207;-62
2021/12/23 00:34:31;;;;;;;6.05;5.45;;;14.90;25.40;;;;;;5094797;28;20208;-62
2021/12/23 00:37:01;;;;;;;6.05;5.45;;;14.90;25.40;;;;;;5105487;28;20723;-62
2021/12/23 00:39:29;;;;;;;5.63;5.13;;;14.90;25.40;;;;;;5114560;28;20270;-62
2021/12/23 00:42:05;;;;;;;5.90;5.32;;;14.90;25.40;;;;;;5114965;28;20273;-62
2021/12/23 00:44:33;;;;;;;5.82;5.22;;;14.90;25.40;;;;;;5115254;28;20294;-62
2021/12/23 00:47:00;;;;;;;5.45;4.95;;;14.80;25.30;;;;;;5114316;28;20730;-62
2021/12/23 00:49:27;;;;;;;4.93;4.53;;;14.90;25.40;;;;;;5099938;28;20211;-62
2021/12/23 00:51:54;;;;;;;5.53;5.03;;;14.80;25.40;;;;;;5093052;28;20196;-62
2021/12/23 00:54:23;;;;;;;5.70;5.20;;;14.80;25.40;;;;;;5093651;28;20264;-61
2021/12/23 00:56:51;;;;;;;5.65;5.10;;;14.80;25.30;;;;;;5093609;28;20227;-62
2021/12/23 00:59:18;;;;;;;5.43;4.93;;;14.80;25.40;;;;;;5093863;28;20211;-62
2021/12/23 01:01:46;;;;;;;5.30;4.80;;;14.80;25.40;;;;;;5094373;28;20622;-62
2021/12/23 01:04:14;;;;;;;4.70;4.30;;;14.80;25.40;;;;;;5090273;28;20204;-62
2021/12/23 01:06:41;;;;;;;5.07;4.57;;;14.70;25.30;;;;;;5077557;28;20219;-62
2021/12/23 01:09:08;;;;;;;5.28;4.78;;;14.80;25.40;;;;;;5076839;28;20378;-61
2021/12/23 01:11:37;;;;;;;5.40;4.90;;;14.70;25.40;;;;;;5077638;28;20208;-62
2021/12/23 01:14:25;;;;;;;5.45;4.95;;;14.80;25.50;;;;;;5077197;28;20209;-62
2021/12/23 01:17:12;;;;;;;5.75;5.25;;;14.70;25.40;;;;;;5075239;28;20239;-62
2021/12/23 01:19:41;;;;;;;5.40;4.90;;;14.70;25.40;;;;;;5082504;28;20208;-62
2021/12/23 01:22:10;;;;;;;4.45;4.15;;;14.70;25.40;;;;;;5077074;28;20314;-62
2021/12/23 01:24:37;;;;;;;4.93;4.53;;;14.70;25.40;;;;;;5077457;28;20243;-62
2021/12/23 01:27:06;;;;;;;4.80;4.40;;;14.70;25.40;;;;;;5077174;28;20609;-62
2021/12/23 01:29:33;;;;;;;4.90;4.50;;;14.70;25.50;;;;;;5077639;28;20455;-61
2021/12/23 01:32:04;;;;;;;4.68;4.28;;;14.70;25.40;;;;;;5098896;28;20207;-62
2021/12/23 01:34:33;;;;;;;4.75;4.25;;;14.60;25.30;;;;;;5118065;28;20660;-62
2021/12/23 01:37:01;;;;;;;4.75;4.35;;;14.60;25.40;;;;;;5117440;28;20310;-61
2021/12/23 01:39:28;;;;;;;5.07;4.68;;;14.60;25.30;;;;;;5117865;28;20222;-62
2021/12/23 01:41:55;;;;;;;5.10;4.70;;;14.60;25.40;;;;;;5117467;28;20222;-62
2021/12/23 01:44:24;;;;;;;4.68;4.28;;;14.60;25.40;;;;;;5118122;28;20206;-62
2021/12/23 01:46:51;;;;;;;5.10;4.60;;;14.60;25.40;;;;;;5117438;28;20206;-62
2021/12/23 01:49:18;;;;;;;4.32;4.03;;;14.60;25.40;;;;;;5116503;28;20609;-61
2021/12/23 01:51:45;;;;;;;4.78;4.38;;;14.50;25.30;;;;;;5117985;28;20203;-62
2021/12/23 01:54:12;;;;;;;4.75;4.35;;;14.60;25.50;;;;;;5117339;28;20764;-62
2021/12/23 01:56:40;;;;;;;4.53;4.13;;;14.50;25.40;;;;;;5117864;28;20245;-62
2021/12/23 01:59:07;;;;;;;4.80;4.40;;;14.50;25.40;;;;;;5117931;28;20206;-62
2021/12/23 02:01:41;;;;;;;4.80;4.40;;;14.50;25.50;;;;;;5117290;28;20196;-62
2021/12/23 02:04:08;;;;;;;5.03;4.50;;;14.50;26.10;;;;;;5117773;28;20608;-62
2021/12/23 02:06:35;;;;;;;4.63;4.22;;;14.50;25.50;;;;;;5116892;28;20200;-61
2021/12/23 02:09:04;;;;;;;4.90;4.50;;;14.50;25.40;;;;;;5117568;28;20198;-62
2021/12/23 02:11:31;;;;;;;4.18;3.83;;;14.50;25.40;;;;;;5117476;28;20217;-61
2021/12/23 02:13:58;;;;;;;4.65;4.25;;;14.50;25.40;;;;;;5117110;28;20596;-61
2021/12/23 02:16:25;;;;;;;4.60;4.20;;;14.40;25.40;;;;;;5116522;28;20207;-62
2021/12/23 02:18:54;;;;;;;4.60;4.20;;;14.40;25.40;;;;;;5117264;28;20505;-61
2021/12/23 02:21:22;;;;;;;4.70;4.28;;;14.40;25.40;;;;;;5117598;28;20203;-62
2021/12/23 02:23:49;;;;;;;4.45;4.05;;;14.40;25.30;;;;;;5117214;28;20226;-62
2021/12/23 02:26:17;;;;;;;4.45;4.05;;;14.40;25.40;;;;;;5116839;28;20207;-62
2021/12/23 02:28:44;;;;;;;4.75;4.35;;;14.40;25.40;;;;;;5116736;28;20207;-62
2021/12/23 02:31:11;;;;;;;4.13;3.78;;;14.40;25.40;;;;;;5117186;28;20226;-62
2021/12/23 02:33:38;;;;;;;4.97;4.13;;;14.40;25.40;;;;;;5116877;28;20210;-62
2021/12/23 02:36:07;;;;;;;4.53;4.13;;;14.40;25.40;;;;;;5116988;28;20218;-62
2021/12/23 02:38:36;;;;;;;4.93;4.53;;;14.30;25.30;;;;;;5116715;28;20207;-61
2021/12/23 02:41:03;;;;;;;4.55;4.15;;;14.30;25.30;;;;;;5116778;28;20203;-62
2021/12/23 02:43:30;;;;;;;4.15;3.85;;;14.30;25.40;;;;;;5116927;28;20223;-62
2021/12/23 02:45:59;;;;;;;4.20;3.90;;;14.30;25.40;;;;;;5117040;28;20237;-62
2021/12/23 02:48:30;;;;;;;4.35;3.97;;;14.30;25.40;;;;;;5116606;28;20207;-62
2021/12/23 02:50:58;;;;;;;4.47;4.07;;;14.30;25.40;;;;;;5111455;28;20211;-62
2021/12/23 02:53:26;;;;;;;4.40;4.00;;;14.30;25.40;;;;;;5113495;28;20491;-63
2021/12/23 02:55:56;;;;;;;4.60;4.22;;;14.30;25.40;;;;;;5115948;28;20226;-62
2021/12/23 02:58:24;;;;;;;4.30;3.90;;;14.30;25.40;;;;;;5115802;28;20202;-61
2021/12/23 03:00:52;;;;;;;4.20;3.80;;;14.30;25.40;;;;;;5116570;28;20207;-62
2021/12/23 03:03:20;;;;;;;4.47;4.10;;;14.30;25.50;;;;;;5116322;28;20227;-63
2021/12/23 03:05:48;;;;;;;4.30;4.00;;;14.20;25.40;;;;;;5116636;28;20207;-62
2021/12/23 03:08:15;;;;;;;4.30;3.90;;;14.20;25.40;;;;;;5116586;28;20206;-62
2021/12/23 03:10:43;;;;;;;3.90;3.60;;;14.20;26.00;;;;;;5116800;28;20211;-62
2021/12/23 03:13:11;;;;;;;4.10;3.80;;;14.20;25.50;;;;;;5116091;28;20604;-62
2021/12/23 03:15:38;;;;;;;4.80;4.32;;;14.20;25.40;;;;;;5116312;28;20203;-63
2021/12/23 03:18:06;;;;;;;3.92;3.63;;;14.20;25.50;;;;;;5116721;28;20487;-63
2021/12/23 03:20:33;;;;;;;4.30;3.90;;;14.20;25.40;;;;;;5116495;28;20225;-62
2021/12/23 03:23:00;;;;;;;4.22;3.88;;;14.20;25.40;;;;;;5115874;28;20650;-62
2021/12/23 03:25:27;;;;;;;4.35;3.95;;;14.20;25.40;;;;;;5075443;28;20201;-62
2021/12/23 03:27:54;;;;;;;4.13;3.83;;;14.20;25.40;;;;;;5075276;28;20215;-62
2021/12/23 03:30:23;;;;;;;3.95;3.65;;;14.20;25.40;;;;;;5074891;28;20208;-62
2021/12/23 03:32:50;;;;;;;4.38;3.88;;;14.10;25.40;;;;;;5076020;28;20204;-62
2021/12/23 03:35:17;;;;;;;4.28;3.88;;;14.10;25.50;;;;;;5075239;28;20754;-62
2021/12/23 03:37:45;;;;;;;4.10;3.70;;;14.10;25.30;;;;;;5075073;28;20567;-61
2021/12/23 03:40:13;;;;;;;4.20;3.90;;;14.10;25.40;;;;;;5075358;28;20587;-62
2021/12/23 03:42:40;;;;;;;3.90;3.60;;;14.10;25.30;;;;;;5075323;28;20231;-62
2021/12/23 03:45:08;;;;;;;4.05;3.75;;;14.10;25.30;;;;;;5075289;28;20200;-61
2021/12/23 03:47:37;;;;;;;4.10;3.80;;;14.10;25.40;;;;;;5076005;28;20203;-61
2021/12/23 03:50:07;;;;;;;4.40;4.00;;;14.10;25.40;;;;;;5074980;28;20212;-61
2021/12/23 03:52:35;;;;;;;4.10;3.80;;;14.10;25.40;;;;;;5109428;28;20222;-62
2021/12/23 03:55:03;;;;;;;3.60;3.30;;;14.00;25.50;;;;;;5115738;28;20213;-61
2021/12/23 03:57:31;;;;;;;3.90;3.60;;;14.00;25.40;;;;;;5115589;28;20238;-61
2021/12/23 03:59:58;;;;;;;4.13;3.83;;;14.00;25.30;;;;;;5115877;28;20202;-61
2021/12/23 04:02:25;;;;;;;4.20;3.80;;;14.00;25.40;;;;;;5115463;28;20229;-61
2021/12/23 04:04:54;;;;;;;3.90;3.58;;;14.00;25.40;;;;;;5115808;28;20218;-62
2021/12/23 04:07:21;;;;;;;4.00;3.70;;;14.00;25.60;;;;;;5114835;28;20203;-62
2021/12/23 04:09:48;;;;;;;4.20;3.80;;;14.00;25.40;;;;;;5115257;28;20236;-61
2021/12/23 04:12:15;;;;;;;4.00;3.70;;;14.00;25.40;;;;;;5115278;28;20206;-62
2021/12/23 04:14:42;;;;;;;3.90;3.58;;;14.00;25.50;;;;;;5115297;28;20226;-62
2021/12/23 04:17:09;;;;;;;3.92;3.63;;;14.00;25.50;;;;;;5115480;28;20222;-62
2021/12/23 04:19:36;;;;;;;3.90;3.60;;;13.90;25.40;;;;;;5115382;28;20198;-62
2021/12/23 04:22:05;;;;;;;4.10;3.80;;;13.90;25.40;;;;;;5115473;28;20575;-61
2021/12/23 04:24:32;;;;;;;4.03;3.63;;;13.90;25.40;;;;;;5115393;28;20223;-62
2021/12/23 04:26:59;;;;;;;3.75;3.45;;;13.90;25.70;;;;;;5115355;28;20230;-62
2021/12/23 04:29:27;;;;;;;3.75;3.45;;;13.90;25.40;;;;;;5115558;28;20203;-61
2021/12/23 04:31:54;;;;;;;3.53;3.25;;;13.90;25.40;;;;;;5115873;28;20215;-61
2021/12/23 04:34:21;;;;;;;4.22;3.83;;;13.90;25.60;;;;;;5115048;28;20203;-62
2021/12/23 04:36:49;;;;;;;3.78;3.47;;;13.90;25.60;;;;;;5115489;28;20203;-62
2021/12/23 04:39:17;;;;;;;3.65;3.35;;;13.90;25.70;;;;;;5116567;28;20602;-61
2021/12/23 04:41:45;;;;;;;3.83;3.50;;;13.90;25.50;;;;;;5118368;28;20213;-62
2021/12/23 04:44:12;;;;;;;3.50;3.20;;;13.90;25.40;;;;;;5118789;28;20222;-62
2021/12/23 04:46:39;;;;;;;3.83;3.53;;;13.80;25.40;;;;;;5118398;28;20206;-62
2021/12/23 04:49:06;;;;;;;4.07;3.67;;;13.80;25.40;;;;;;5118662;28;20273;-62
2021/12/23 04:51:34;;;;;;;3.90;3.60;;;13.80;25.50;;;;;;5118671;28;20203;-62
2021/12/23 04:54:01;;;;;;;4.78;4.38;;;13.80;25.40;;;;;;5118973;28;20203;-62
2021/12/23 04:56:29;;;;;;;4.10;3.80;;;13.80;25.40;;;;;;5118689;28;20253;-62
2021/12/23 04:58:56;;;;;;;4.30;3.58;;;13.80;25.40;;;;;;5118347;28;20210;-62
2021/12/23 05:01:28;;;;;;;3.95;3.65;;;13.80;25.40;;;;;;5118891;28;20207;-62
2021/12/23 05:03:56;;;;;;;4.30;3.90;;;13.80;25.60;;;;;;5118675;28;20226;-62
2021/12/23 05:06:23;;;;;;;4.05;3.70;;;13.70;25.30;;;;;;5119014;28;20199;-62
2021/12/23 05:08:50;;;;;;;4.43;4.03;;;13.80;25.40;;;;;;5121940;27;20530;-62
2021/12/23 05:11:18;;;;;;;3.97;3.63;;;13.70;25.30;;;;;;5121031;27;20210;-62
2021/12/23 05:13:48;;;;;;;3.97;3.67;;;13.70;25.40;;;;;;5118174;28;20214;-62
2021/12/23 05:16:15;;;;;;;4.22;3.92;;;13.70;25.20;;;;;;5117857;28;20264;-62
2021/12/23 05:18:42;;;;;;;3.78;3.47;;;13.70;25.50;;;;;;5118431;28;20203;-62
2021/12/23 05:21:09;;;;;;;4.05;3.75;;;13.70;25.30;;;;;;5118759;28;20195;-62
2021/12/23 05:23:37;;;;;;;4.00;3.70;;;13.70;25.20;;;;;;5118045;28;20227;-62
2021/12/23 05:26:06;;;;;;;4.60;4.20;;;13.70;25.30;;;;;;5117778;28;20202;-62
2021/12/23 05:28:33;;;;;;;4.40;4.10;;;13.70;25.40;;;;;;5118096;28;20217;-62
2021/12/23 05:31:02;;;;;;;4.30;3.90;;;13.60;25.30;;;;;;5117957;28;20214;-62
2021/12/23 05:33:29;;;;;;;4.32;3.92;;;13.70;25.40;;;;;;5118357;28;20604;-62
2021/12/23 05:35:56;;;;;;;4.22;3.83;;;13.60;25.70;;;;;;5117401;28;20203;-62
2021/12/23 05:38:24;;;;;;;4.20;3.83;;;13.60;25.30;;;;;;5118263;28;20218;-62
2021/12/23 05:40:51;;;;;;;4.55;4.15;;;13.60;25.30;;;;;;5117496;28;20313;-62
2021/12/23 05:43:18;;;;;;;4.10;3.80;;;13.60;25.50;;;;;;5117184;28;20234;-62
2021/12/23 05:45:46;;;;;;;4.55;4.15;;;13.60;25.30;;;;;;5117149;28;20210;-62
2021/12/23 05:48:14;;;;;;;4.40;4.00;;;13.60;25.30;;;;;;5118015;28;20207;-62
2021/12/23 05:50:41;;;;;;;3.80;3.50;;;13.60;25.50;;;;;;5117214;28;20297;-62
2021/12/23 05:53:09;;;;;;;4.38;3.97;;;13.60;25.50;;;;;;5116719;28;20210;-62
2021/12/23 05:55:36;;;;;;;3.92;3.60;;;13.60;25.30;;;;;;5117499;28;20499;-62
2021/12/23 05:58:03;;;;;;;4.50;4.10;;;13.60;25.40;;;;;;5117730;28;20195;-62
2021/12/23 06:00:33;;;;;;;4.30;3.97;;;13.50;25.30;;;;;;5117558;28;20512;-62
2021/12/23 06:03:02;;;;;;;4.70;4.30;;;13.50;25.20;;;;;;5117254;28;20203;-63
2021/12/23 06:05:31;;;;;;;4.22;3.90;;;13.50;25.30;;;;;;5117893;28;20614;-62
2021/12/23 06:07:58;;;;;;;3.95;3.65;;;13.50;25.40;;;;;;5117681;28;20216;-62
2021/12/23 06:10:26;;;;;;;4.47;4.07;;;13.50;25.30;;;;;;5117215;28;20199;-62
2021/12/23 06:12:53;;;;;;;4.35;3.95;;;13.50;25.30;;;;;;5116957;28;20226;-62
2021/12/23 06:15:20;;;;;;;4.00;3.70;;;13.50;25.40;;;;;;5117248;28;20202;-62
2021/12/23 06:17:47;;;;;;;4.00;3.70;;;13.50;25.40;;;;;;5117139;28;20207;-62
2021/12/23 06:20:14;;;;;;;4.10;3.80;;;13.40;25.30;;;;;;5117363;28;20203;-62
2021/12/23 06:22:44;;;;;;;3.90;3.60;;;13.40;25.60;;;;;;5117448;28;20214;-62
2021/12/23 06:25:13;;;;;;;4.40;4.00;;;13.40;25.30;;;;;;5117546;28;20227;-63
2021/12/23 06:27:41;;;;;;;4.40;4.03;;;13.40;25.30;;;;;;5117395;28;20206;-62
2021/12/23 06:30:18;;;;;;;4.38;3.97;;;13.40;25.30;;;;;;5117301;28;20210;-62
2021/12/23 06:32:46;;;;;;;4.03;3.72;;;13.40;25.40;;;;;;5117583;28;20206;-62
2021/12/23 06:35:14;;;;;;;4.03;3.72;;;13.40;25.30;;;;;;5117727;28;20214;-62
2021/12/23 06:37:44;;;;;;;4.10;3.78;;;13.40;25.40;;;;;;5117124;28;20207;-62
2021/12/23 06:40:12;;;;;;;4.57;4.18;;;13.40;25.30;;;;;;5116844;28;20211;-62
2021/12/23 06:42:39;;;;;;;4.60;4.20;;;13.40;25.40;;;;;;5117232;28;20195;-62
2021/12/23 06:45:07;;;;;;;4.40;4.00;;;13.30;25.30;;;;;;5116737;28;20257;-62
2021/12/23 06:47:35;;;;;;;4.20;3.90;;;13.30;25.40;;;;;;5116937;28;20487;-62
2021/12/23 06:50:03;;;;;;;4.25;3.95;;;13.30;25.30;;;;;;5116546;28;20211;-62
2021/12/23 06:52:31;;;;;;;4.18;3.78;;;13.30;25.30;;;;;;5116518;28;20211;-62
2021/12/23 06:55:00;;;;;;;4.45;4.13;;;13.30;25.40;;;;;;5116639;28;20219;-62
2021/12/23 06:57:28;;;;;;;4.43;4.10;;;13.30;25.30;;;;;;5116420;28;20227;-62
2021/12/23 06:59:55;;;;;;;4.40;4.00;;;13.30;25.30;;;;;;5117122;28;20213;-62
2021/12/23 07:02:22;;;;;;;4.25;3.95;;;13.30;25.20;;;;;;5116264;28;20272;-62
2021/12/23 07:04:49;;;;;;;4.72;4.32;;;13.30;25.40;;;;;;5115967;28;20223;-62
2021/12/23 07:07:26;;;;;;;4.88;4.47;;;13.30;25.40;;;;;;5116131;28;20203;-62
2021/12/23 07:09:54;;;;;;;4.25;3.95;;;13.20;25.20;;;;;;5116296;28;20570;-63
2021/12/23 07:12:23;;;;;;;4.43;4.03;;;13.30;25.30;;;;;;5116150;28;20233;-62
2021/12/23 07:14:51;;;;;;;4.55;4.20;;;13.20;25.20;;;;;;5116388;28;20203;-63
2021/12/23 07:17:18;;;;;;;4.57;4.18;;;13.20;25.30;;;;;;5116497;28;20495;-63
2021/12/23 07:19:46;;;;;;;4.80;4.40;;;13.20;25.20;;;;;;5115727;28;20609;-63
2021/12/23 07:22:13;;;;;;;4.32;4.03;;;13.20;25.20;;;;;;5115570;28;20207;-63
2021/12/23 07:24:41;;;;;;;4.65;4.25;;;13.20;25.20;;;;;;5115984;28;20234;-62
2021/12/23 07:27:08;;;;;;;4.30;3.90;;;13.20;25.50;;;;;;5116019;28;20207;-62
2021/12/23 07:29:37;;;;;;;4.70;4.30;;;13.20;25.30;;;;;;5115861;28;20222;-62
2021/12/23 07:32:06;;;;;;;4.50;4.20;;;13.20;25.20;;;;;;5115036;28;20207;-63
2021/12/23 07:34:34;;;;;;;4.55;4.15;;;13.20;25.20;;;;;;5115744;28;20199;-62
2021/12/23 07:37:01;;;;;;;4.57;4.15;;;13.10;25.40;;;;;;5115238;28;20798;-63
2021/12/23 07:39:28;;;;;;;4.93;4.53;;;13.10;25.20;;;;;;5115559;28;20301;-63
2021/12/23 07:41:55;;;;;;;4.53;3.95;;;13.10;25.20;;;;;;5115034;28;20211;-62
2021/12/23 07:44:23;;;;;;;4.53;4.15;;;13.10;25.20;;;;;;5115720;28;20218;-62
2021/12/23 07:46:52;;;;;;;4.47;4.07;;;13.10;25.30;;;;;;5114996;28;20225;-63
2021/12/23 07:49:19;;;;;;;4.40;4.00;;;13.10;25.30;;;;;;5115303;28;20207;-63
2021/12/23 07:51:46;;;;;;;4.70;4.30;;;13.10;25.40;;;;;;5115303;28;20477;-63
2021/12/23 07:54:13;;;;;;;4.38;4.07;;;13.10;25.20;;;;;;5114814;28;20205;-63
2021/12/23 07:56:40;;;;;;;4.47;4.07;;;13.10;25.50;;;;;;5114396;28;20238;-63
2021/12/23 07:59:07;;;;;;;4.60;4.20;;;13.10;25.20;;;;;;5114775;28;20233;-62
2021/12/23 08:01:35;;;;;;;4.80;4.30;;;13.10;25.90;;;;;;5115372;28;20265;-62
2021/12/23 08:04:03;;;;;;;4.60;4.20;;;13.00;25.20;;;;;;5115336;28;20632;-62
2021/12/23 08:06:30;;;;;;;4.22;3.83;;;13.00;25.20;;;;;;5115695;28;20215;-63
2021/12/23 08:08:58;;;;;;;4.22;3.83;;;13.00;25.20;;;;;;5114918;28;20207;-63
2021/12/23 08:11:25;;;;;;;3.92;3.63;;;13.00;25.30;;;;;;5115098;28;20199;-62
2021/12/23 08:13:52;;;;;;;4.75;4.35;;;13.00;25.30;;;;;;5116024;28;20206;-64
2021/12/23 08:16:19;;;;;;;5.15;4.72;;;13.00;25.30;;;;;;5119500;28;20574;-63
2021/12/23 08:18:46;;;;;;;4.45;4.07;;;13.00;25.40;;;;;;5119430;28;20601;-63
2021/12/23 08:21:15;;;;;;;4.65;4.25;;;13.00;25.20;;;;;;5119392;28;20206;-63
2021/12/23 08:23:42;;;;;;;4.40;4.00;;;13.00;25.20;;;;;;5118797;28;20659;-62
2021/12/23 08:26:15;;;;;;;4.70;4.30;;;13.00;25.20;;;;;;5118351;28;20233;-63
2021/12/23 08:28:42;;;;;;;5.00;4.28;;;13.00;25.40;;;;;;5118670;28;20297;-63
2021/12/23 08:31:09;;;;;;;4.70;4.30;;;13.00;25.30;;;;;;5118339;28;20211;-63
2021/12/23 08:33:36;;;;;;;4.03;3.72;;;12.90;25.10;;;;;;5119300;28;20206;-62
2021/12/23 08:36:04;;;;;;;4.85;4.35;;;12.90;25.30;;;;;;5118164;28;20214;-62
2021/12/23 08:38:32;;;;;;;4.20;3.90;;;12.90;25.30;;;;;;5119100;28;20203;-62
2021/12/23 08:41:00;;;;;;;4.70;4.30;;;12.90;25.20;;;;;;5118687;28;20211;-63
2021/12/23 08:43:27;;;;;;;4.50;4.10;;;12.90;25.50;;;;;;5118497;28;20218;-63
2021/12/23 08:45:54;;;;;;;4.35;4.00;;;12.90;25.20;;;;;;5118253;28;20223;-63
2021/12/23 08:48:21;;;;;;;4.85;4.45;;;12.90;25.20;;;;;;5118591;28;20207;-63
2021/12/23 08:50:48;;;;;;;4.13;3.83;;;12.90;25.20;;;;;;5118404;28;20211;-63
2021/12/23 08:53:15;;;;;;;4.47;4.07;;;12.90;25.40;;;;;;5117698;28;20206;-63
2021/12/23 08:55:44;;;;;;;4.22;3.90;;;12.90;25.30;;;;;;5117908;28;20199;-62
2021/12/23 08:58:11;;;;;;;4.82;4.43;;;12.90;25.20;;;;;;5118388;28;20632;-63
2021/12/23 09:00:40;;;;;;;4.47;4.07;;;12.80;25.30;;;;;;5115564;27;20229;-62
2021/12/23 09:03:09;;;;;;;5.78;5.28;;;12.80;25.10;;;;;;5124198;27;20501;-62
2021/12/23 09:05:38;;;;;;;7.97;7.28;;;12.80;25.40;;;;;;5118275;28;20223;-62
2021/12/23 09:08:06;;;;;;;14.02;12.73;;;12.80;25.30;;;;;;5117472;28;20207;-63
2021/12/23 09:10:33;;;;;;;19.65;17.80;;;12.80;25.20;;;;;;5117273;28;20210;-62
2021/12/23 09:13:03;;;;;;;19.83;17.92;;;12.80;25.20;;;;;;5116875;28;20233;-62
2021/12/23 09:15:31;;;;;;;19.58;17.58;;;12.80;25.10;;;;;;5117672;28;20195;-62
2021/12/23 09:17:58;;;;;;;18.92;17.13;;;12.80;25.20;;;;;;5117158;28;20215;-63
2021/12/23 09:20:25;;;;;;;19.77;17.90;;;12.80;25.20;;;;;;5117022;28;20203;-63
2021/12/23 09:22:53;;;;;;;19.38;17.40;;;12.80;25.20;;;;;;5117054;28;20210;-63
2021/12/23 09:25:24;;;;;;;18.45;16.55;;;12.80;25.20;;;;;;5116058;28;20234;-63
2021/12/23 09:33:26;;;;;;;45.03;40.53;;;12.80;25.40;;;;;;5097211;28;20289;-62
2021/12/23 09:35:53;;;;;;;49.83;44.83;;;12.80;25.30;;;;;;5097808;28;20215;-63
2021/12/23 09:38:27;;;;;;;46.05;41.40;;;12.80;25.40;;;;;;5097501;28;20216;-63
2021/12/23 09:40:59;;;;;;;163.02;140.77;;;12.70;25.30;;;;;;5096472;28;20211;-63
2021/12/23 09:43:27;;;;;;;252.95;217.07;;;12.70;25.40;;;;;;5096596;28;20219;-63
2021/12/23 09:45:57;;;;;;;201.45;170.18;;;12.80;25.60;;;;;;5108488;28;20223;-62
2021/12/23 09:48:27;;;;;;;185.57;157.93;;;12.80;25.70;;;;;;5116305;28;20609;-62
2021/12/23 09:50:55;;;;;;;176.27;149.25;;;12.80;25.80;;;;;;5108237;28;20215;-63
2021/12/23 09:53:24;;;;;;;160.18;139.68;;;12.80;25.90;;;;;;5093769;28;20212;-62
2021/12/23 09:55:51;;;;;;;145.85;129.77;;;12.80;25.90;;;;;;5094854;28;20231;-62
2021/12/23 09:58:19;;;;;;;161.00;143.48;;;12.80;26.10;;;;;;5095478;28;20204;-62
2021/12/23 10:00:46;;;;;;;169.98;151.73;;;12.80;26.10;;;;;;5095583;28;20211;-62
2021/12/23 10:03:18;;;;;;;160.13;143.02;;;12.90;26.30;;;;;;5094539;28;20242;-62
2021/12/23 10:05:46;;;;;;;149.23;132.88;;;12.90;26.30;;;;;;5093904;28;20532;-63
2021/12/23 10:08:15;;;;;;;144.90;129.75;;;12.90;26.40;;;;;;5095152;28;20204;-63
2021/12/23 10:10:47;;;;;;;137.60;122.88;;;12.90;26.50;;;;;;5093640;28;20245;-63
2021/12/23 10:32:55;;;;;;;76.05;68.15;;;13.10;27.60;;;;;;5114060;28;20272;-62
2021/12/23 10:38:13;;;;;;;66.03;59.20;;;13.20;27.70;;;;;;5112478;28;20741;-63
2021/12/23 10:40:43;;;;;;;61.88;55.47;;;13.30;27.90;;;;;;5114141;28;20195;-63
2021/12/23 10:43:12;;;;;;;58.33;52.33;;;13.30;27.70;;;;;;5115378;28;20207;-62
2021/12/23 10:45:51;;;;;;;55.38;49.45;;;13.30;27.70;;;;;;5114830;28;20254;-62
2021/12/23 10:48:19;;;;;;;53.22;47.78;;;13.40;27.80;;;;;;5115821;28;20211;-63
2021/12/23 10:50:50;;;;;;;49.72;44.80;;;13.40;27.80;;;;;;5115409;28;20214;-62
2021/12/23 10:53:39;;;;;;;46.40;41.65;;;13.50;27.80;;;;;;5115073;28;20249;-62
2021/12/23 10:59:05;;;;;;;40.30;36.20;;;13.50;27.70;;;;;;5115256;28;20248;-62
2021/12/23 11:01:36;;;;;;;38.92;35.03;;;13.60;27.70;;;;;;5114843;28;20221;-62
2021/12/23 11:04:06;;;;;;;36.53;32.85;;;13.60;27.70;;;;;;5114524;28;20230;-63
2021/12/23 11:06:40;;;;;;;34.45;30.67;;;13.60;27.70;;;;;;5114298;28;20250;-63
2021/12/23 11:09:33;;;;;;;32.58;28.77;;;13.60;27.60;;;;;;5113532;28;20276;-63
2021/12/23 11:27:23;;;;;;;31.48;28.08;;;13.70;27.60;;;;;;5114666;28;20540;-63
2021/12/23 11:37:43;;;;;;;21.08;18.88;;;14.00;27.90;;;;;;5111630;28;20227;-62
2021/12/23 11:40:25;;;;;;;19.23;17.35;;;14.10;28.00;;;;;;5111852;28;20524;-62
2021/12/23 11:43:25;;;;;;;18.65;16.70;;;14.10;28.00;;;;;;5112450;28;20203;-62
2021/12/23 11:45:52;;;;;;;17.02;15.40;;;14.10;27.90;;;;;;5112140;28;20258;-62
2021/12/23 11:48:19;;;;;;;16.77;15.02;;;14.20;28.00;;;;;;5111444;28;20203;-62
2021/12/23 11:50:55;;;;;;;15.40;14.00;;;14.30;28.00;;;;;;5112175;28;20203;-62
2021/12/23 11:53:24;;;;;;;15.68;13.88;;;14.30;28.00;;;;;;5111538;28;20214;-61
2021/12/23 11:55:53;;;;;;;14.45;13.10;;;14.40;28.00;;;;;;5110692;28;20231;-62
2021/12/23 11:58:23;;;;;;;14.57;13.13;;;14.40;27.90;;;;;;5112579;28;20207;-62
2021/12/23 12:01:03;;;;;;;14.13;12.73;;;14.40;27.80;;;;;;5111221;28;20203;-62
2021/12/23 12:03:30;;;;;;;13.73;12.38;;;14.50;27.80;;;;;;5111133;28;20230;-63
2021/12/23 12:06:13;;;;;;;13.23;11.75;;;14.50;27.80;;;;;;5110814;28;20229;-62
2021/12/23 12:08:40;;;;;;;12.57;11.27;;;14.50;27.70;;;;;;5110840;28;20203;-63
2021/12/23 12:11:17;;;;;;;11.75;10.75;;;14.50;27.60;;;;;;5110465;28;20207;-62
2021/12/23 12:13:45;;;;;;;11.63;10.63;;;14.60;27.60;;;;;;5110405;28;20469;-62
2021/12/23 12:16:33;;;;;;;11.20;10.23;;;14.60;27.50;;;;;;5110976;28;20213;-63
2021/12/23 12:19:01;;;;;;;11.20;10.13;;;14.60;27.40;;;;;;5110948;28;20242;-62
2021/12/23 12:21:31;;;;;;;10.13;9.23;;;14.70;27.40;;;;;;5110329;28;20305;-63
2021/12/23 12:24:17;;;;;;;10.18;9.25;;;14.70;27.30;;;;;;5110148;28;20458;-62
2021/12/23 12:26:58;;;;;;;9.98;9.07;;;14.70;27.20;;;;;;5110779;28;20230;-63
2021/12/23 12:29:35;;;;;;;9.57;8.68;;;14.70;27.10;;;;;;5109675;28;20256;-63
2021/12/23 12:32:04;;;;;;;9.65;8.75;;;14.70;27.10;;;;;;5069950;28;20212;-63
2021/12/23 12:34:34;;;;;;;9.20;8.30;;;14.80;27.10;;;;;;5070509;28;20216;-63
2021/12/23 12:37:03;;;;;;;8.18;7.40;;;14.80;27.00;;;;;;5070238;28;20389;-62
2021/12/23 12:39:34;;;;;;;8.25;7.45;;;14.80;26.90;;;;;;5070364;28;20830;-62
2021/12/23 12:42:07;;;;;;;8.95;7.43;;;14.80;26.90;;;;;;5069945;28;20216;-62
2021/12/23 12:44:46;;;;;;;8.23;7.53;;;14.80;26.80;;;;;;5070592;28;20474;-62
2021/12/23 12:47:24;;;;;;;8.13;7.32;;;14.80;26.70;;;;;;5070919;28;20204;-62
2021/12/23 12:49:53;;;;;;;8.07;7.28;;;14.80;26.70;;;;;;5070307;28;20670;-61
2021/12/23 12:52:23;;;;;;;7.53;6.82;;;14.90;26.70;;;;;;5069513;28;20231;-62
2021/12/23 12:54:55;;;;;;;7.10;6.50;;;14.80;26.50;;;;;;5069646;28;20630;-62
2021/12/23 12:57:30;;;;;;;6.60;6.03;;;14.90;26.60;;;;;;5079635;28;20233;-62
2021/12/23 13:00:14;;;;;;;7.30;6.60;;;14.90;26.50;;;;;;5112146;28;20368;-63
2021/12/23 13:02:41;;;;;;;6.85;6.25;;;14.90;26.40;;;;;;5113765;28;20210;-62
2021/12/23 13:05:11;;;;;;;6.93;6.32;;;14.90;26.40;;;;;;5113358;28;20234;-63
2021/12/23 13:07:40;;;;;;;6.63;6.10;;;14.90;26.30;;;;;;5112318;28;20206;-63
2021/12/23 13:10:13;;;;;;;6.70;6.10;;;14.90;26.30;;;;;;5113555;28;20206;-63
2021/12/23 13:12:49;;;;;;;6.90;6.30;;;14.90;26.30;;;;;;5112708;28;20393;-62
2021/12/23 13:15:20;;;;;;;6.25;5.75;;;14.90;26.30;;;;;;5113308;28;20194;-62
2021/12/23 13:17:59;;;;;;;6.30;5.80;;;14.90;26.20;;;;;;5114200;28;20202;-62
2021/12/23 13:20:47;;;;;;;6.63;6.03;;;14.90;26.10;;;;;;5115536;28;20694;-62
2021/12/23 13:23:18;;;;;;;6.05;5.53;;;14.90;26.20;;;;;;5115936;28;20276;-62
2021/12/23 13:25:57;;;;;;;6.20;5.60;;;14.90;26.10;;;;;;5115329;28;20242;-62
2021/12/23 13:28:31;;;;;;;5.90;5.40;;;14.90;26.10;;;;;;5115619;28;20282;-63
2021/12/23 13:30:59;;;;;;;6.28;5.75;;;14.90;26.00;;;;;;5115368;28;20226;-62
2021/12/23 13:33:27;;;;;;;39.67;34.17;;;14.90;26.10;;;;;;5115432;28;20211;-62
2021/12/23 13:35:54;;;;;;;27.95;24.95;;;14.80;25.90;;;;;;5116772;28;20203;-62
2021/12/23 13:38:43;;;;;;;25.58;22.80;;;14.80;25.90;;;;;;5116336;28;20211;-62
2021/12/23 13:41:18;;;;;;;24.92;22.27;;;14.80;26.00;;;;;;5111155;28;20297;-62
2021/12/23 13:43:47;;;;;;;24.67;20.52;;;14.80;25.90;;;;;;5115892;28;20525;-62
2021/12/23 13:46:15;;;;;;;23.10;19.92;;;14.80;26.00;;;;;;5115521;28;20258;-62
2021/12/23 13:48:53;;;;;;;21.25;19.02;;;14.80;26.00;;;;;;5115697;28;20755;-62
2021/12/23 13:51:22;;;;;;;20.92;18.70;;;14.80;26.00;;;;;;5115725;28;20268;-62